ADDS TAF Board (Experimental) INFO Settings
IDs: Format: Expanded Condensed

KLGA - New York/La Guardia, NY, US

Issued at 0520 UTC 12 Feb 2016
Updated at: 0742 UTC 12 Feb 2016
Time0651Z 12/08Z 12/09Z 12/10Z 12/11Z 12/12Z 12/13Z 12/14Z 12/15Z 12/16Z 12/17Z 12/18Z 12/19Z 12/20Z
Type OBS PRVL PRVL PRVL PRVL PRVL PRVL PRVL PRVL PRVL PRVL PRVL PRVL PRVL
VIS 10 >6 >6 >6 >6 >6 >6 >6 >6 >6 >6 >6 >6 >6
CIG -- -- -- -- -- -- -- -- -- 130 130 130 130 130
Cover CLR FEW FEW SKC SKC SKC SKC SKC SKC BKN BKN BKN BKN BKN
FltCat VFR VFR VFR VFR VFR VFR VFR VFR VFR VFR VFR VFR VFR VFR
WX -- -- -- -- -- -- -- -- -- -- -- -- -- --
WDir 300 300 300 290 290 290 290 290 290 240 240 240 240 240
WSpd 17 15 15 10 10 10 10 10 10 9 9 9 9 9
WGst 26 23 23 -- -- -- -- -- -- -- -- -- -- --
R04/22
XWnd 17 15 15 10 10 10 10 10 10 4 4 4 4 4
XGst 26 23 23 -- -- -- -- -- -- -- -- -- -- --
HWnd -1 -1 -1 -2 -2 -2 -2 -2 -2 -8 -8 -8 -8 -8
HGst -1 -1 -1 -- -- -- -- -- -- -- -- -- -- --
R13/31
XWnd -1 -1 -1 -2 -2 -2 -2 -2 -2 -8 -8 -8 -8 -8
XGst -1 -1 -1 -- -- -- -- -- -- -- -- -- -- --
HWnd -17 -15 -15 -10 -10 -10 -10 -10 -10 -4 -4 -4 -4 -4
HGst -26 -23 -23 -- -- -- -- -- -- -- -- -- -- --

NOTE: TEMPO conditions in [brackets]. Keep in mind TEMPO conditions might be better (lower impact) than prevailing conditions.

Raw TAF
KLGA 120520Z 1206/1306 30015G23KT P6SM FEW060
  FM121000 29010KT P6SM SKC
  FM121600 24009KT P6SM FEW040 BKN130
  FM130300 26009KT P6SM FEW035 BKN040


Raw METAR
KLGA 120651Z 30017G26KT 10SM CLR M07/M17 A3023 RMK AO2 PK WND 32026/0650 SLP235 T10721172 $
KLGA 120551Z 29019G26KT 10SM CLR M07/M18 A3022 RMK AO2 PK WND 31028/0515 SLP232 T10671178 11044 21067 51019 $
KLGA 120451Z 31017G27KT 10SM FEW060 M07/M17 A3020 RMK AO2 PK WND 31027/0447 SLP225 T10671167 400001067 $

METAR Board
Radar Display
Forecast Discussion

TAF Board Legend

Potential Impact
Threat None Slight Moderate High
Visibility (sm) ≥5.1 5.1>X≥3 3>X≥1 <1
Ceiling (100 ft) ≥30.1 30.1>X≥10 10>X≥5 <5
Wind Speed (kt) <10 10≤X<20 20≤X<30 ≥30
Wind Gust (kt) <15 15≤X<25 25≤X<35 ≥35
Weather No Wx Reported VCTS,-TS,-FZRA,SN TS,FZRA +TS,+FZRA,+SN